Time;durP1;ratioP1;P1;durP2;ratioP2;P2;SDS_P1;SDS_P2;PMS_P1;PMS_P2;Temp;Humidity;BMP_temperature;BMP_pressure;BME280_temperature;BME280_humidity;BME280_pressure;Samples;Min_cycle;Max_cycle;Signal;HPM_P1;HPM_P2
2022/01/18 00:01:38;;;;;;;0.10;0.10;;;3.60;99.90;24.80;104503.00;;;;5019784;28;20209;-73
2022/01/18 00:04:07;;;;;;;0.10;0.10;;;3.50;99.90;24.70;103627.00;;;;5019233;28;20215;-74
2022/01/18 00:06:38;;;;;;;0.10;0.10;;;3.50;99.90;24.70;104307.00;;;;5024124;28;20195;-73
2022/01/18 00:09:07;;;;;;;0.10;0.10;;;3.40;99.90;24.70;104517.00;;;;5023130;28;20964;-73
2022/01/18 00:11:42;;;;;;;0.10;0.10;;;3.40;99.90;24.70;104600.00;;;;5023959;28;20563;-74
2022/01/18 00:14:22;;;;;;;0.10;0.10;;;3.40;99.90;24.70;104737.00;;;;5023557;28;20258;-74
2022/01/18 00:17:02;;;;;;;0.10;0.10;;;3.40;99.90;24.70;104693.00;;;;5023329;28;20273;-74
2022/01/18 00:19:30;;;;;;;0.10;0.10;;;3.40;99.90;25.10;102198.00;;;;5023779;28;20223;-73
2022/01/18 00:22:13;;;;;;;0.10;0.10;;;3.40;99.90;25.10;102377.00;;;;5022905;28;20257;-73
2022/01/18 00:24:42;;;;;;;0.10;0.10;;;3.40;99.90;25.00;102240.00;;;;5022482;28;20199;-73
2022/01/18 00:27:15;;;;;;;0.10;0.10;;;3.40;99.90;24.80;103082.00;;;;5022785;28;20199;-73
2022/01/18 00:29:53;;;;;;;0.10;0.10;;;3.50;99.90;25.10;102400.00;;;;5022281;28;20203;-73
2022/01/18 00:32:30;;;;;;;0.10;0.10;;;3.50;99.90;24.90;102709.00;;;;5024681;28;20903;-73
2022/01/18 00:34:58;;;;;;;0.10;0.10;;;3.50;99.90;25.10;102591.00;;;;5028784;28;20195;-73
2022/01/18 00:37:34;;;;;;;0.10;0.10;;;3.50;99.90;25.00;102418.00;;;;5024302;28;20774;-73
2022/01/18 00:40:06;;;;;;;0.10;0.10;;;3.40;99.90;24.70;103566.00;;;;5023779;28;20661;-73
2022/01/18 00:42:35;;;;;;;0.10;0.10;;;3.30;99.90;24.50;103775.00;;;;5022204;28;20219;-73
2022/01/18 00:45:04;;;;;;;0.10;0.10;;;3.30;99.90;24.60;104311.00;;;;5022003;28;20199;-73
2022/01/18 00:47:32;;;;;;;0.10;0.10;;;3.20;99.90;24.60;104470.00;;;;5022275;28;20199;-73
2022/01/18 00:50:01;;;;;;;0.10;0.10;;;3.20;99.90;24.60;104584.00;;;;5022112;28;20196;-73
2022/01/18 00:52:37;;;;;;;0.10;0.10;;;3.20;99.90;24.50;104602.00;;;;5047470;23;20233;-74
2022/01/18 00:55:06;;;;;;;0.10;0.10;;;3.10;99.90;24.50;104639.00;;;;5022097;28;20886;-74
2022/01/18 00:57:34;;;;;;;0.10;0.10;;;3.10;99.90;24.50;104676.00;;;;5021323;28;20211;-74
2022/01/18 01:00:01;;;;;;;0.10;0.10;;;3.10;99.90;230.40;170317.00;;;;5020904;28;20203;-74
2022/01/18 01:02:29;;;;;;;0.10;0.10;;;3.20;99.90;230.40;228845.00;;;;5004556;28;20227;-74
2022/01/18 01:04:58;;;;;;;0.10;0.10;;;3.20;99.90;230.40;228845.00;;;;5026051;28;20246;-74
2022/01/18 01:07:26;;;;;;;0.10;0.10;;;3.10;99.90;230.40;228845.00;;;;5028731;28;20690;-74
2022/01/18 01:09:55;;;;;;;0.10;0.10;;;3.20;99.90;230.40;228845.00;;;;5026461;28;20195;-75
2022/01/18 01:12:27;;;;;;;0.10;0.10;;;3.10;99.90;230.40;228845.00;;;;5029605;28;20227;-74
2022/01/18 01:15:03;;;;;;;0.10;0.10;;;3.20;99.90;230.40;228845.00;;;;5028234;28;20191;-74
2022/01/18 01:17:42;;;;;;;0.10;0.10;;;3.30;99.90;230.40;228845.00;;;;5029449;28;20652;-74
2022/01/18 01:41:41;;;;;;;0.10;0.10;;;3.20;99.90;230.40;228845.00;;;;5025412;28;20290;-74
2022/01/18 01:43:11;;;;;;;0.10;0.10;;;3.10;99.90;230.40;228845.00;;;;5028008;28;20207;-74
2022/01/18 01:45:42;;;;;;;0.10;0.10;;;3.10;99.90;230.40;228845.00;;;;5027387;28;20273;-74
2022/01/18 01:48:11;;;;;;;0.10;0.10;;;3.10;99.90;230.40;228845.00;;;;5028803;28;20661;-74
2022/01/18 01:50:45;;;;;;;0.10;0.10;;;3.10;99.90;230.40;228845.00;;;;5027512;28;20191;-74
2022/01/18 01:53:16;;;;;;;0.10;0.10;;;3.00;99.90;230.40;228845.00;;;;5028500;28;20711;-74
2022/01/18 01:55:45;;;;;;;0.10;0.10;;;3.20;99.90;230.40;228845.00;;;;5028530;28;20728;-74
2022/01/18 01:58:17;;;;;;;0.10;0.10;;;3.10;99.90;230.40;228845.00;;;;5029080;28;20223;-74
2022/01/18 02:00:49;;;;;;;0.10;0.10;;;3.20;99.90;230.40;228845.00;;;;5028289;28;20199;-75
2022/01/18 02:03:18;;;;;;;0.10;0.10;;;3.20;99.90;230.40;228845.00;;;;5009790;28;20351;-74
2022/01/18 02:05:48;;;;;;;0.10;0.10;;;3.10;99.90;230.40;228845.00;;;;5027682;28;20195;-75
2022/01/18 02:08:17;;;;;;;0.10;0.10;;;3.20;99.90;230.40;228845.00;;;;5027585;28;20222;-75
2022/01/18 02:10:45;;;;;;;0.10;0.10;;;3.30;99.90;230.40;228845.00;;;;5028548;28;20191;-74
2022/01/18 02:13:18;;;;;;;0.10;0.10;;;3.20;99.90;230.40;228845.00;;;;5027342;28;20207;-74
2022/01/18 02:16:09;;;;;;;0.10;0.10;;;3.20;99.90;230.40;228845.00;;;;5007654;28;20207;-75
2022/01/18 02:24:14;;;;;;;0.10;0.10;;;3.00;99.90;230.40;228845.00;;;;5012791;28;20569;-74
2022/01/18 02:26:42;;;;;;;0.10;0.10;;;3.00;99.90;230.40;228845.00;;;;5027409;28;20195;-74
2022/01/18 02:29:12;;;;;;;0.10;0.10;;;3.00;99.90;230.40;228845.00;;;;5026939;28;20211;-74
2022/01/18 02:31:40;;;;;;;0.10;0.10;;;3.00;99.90;230.40;228845.00;;;;5028226;28;20257;-74
2022/01/18 02:34:12;;;;;;;0.10;0.10;;;3.00;99.90;230.40;228845.00;;;;5027749;28;20207;-74
2022/01/18 02:36:42;;;;;;;0.10;0.10;;;3.00;99.90;230.40;228845.00;;;;5027021;28;20203;-73
2022/01/18 02:39:13;;;;;;;0.10;0.10;;;3.00;99.90;230.40;228845.00;;;;5009840;28;20226;-74
2022/01/18 02:41:41;;;;;;;0.10;0.10;;;3.00;99.90;230.40;228845.00;;;;5010190;28;20200;-74
2022/01/18 02:44:14;;;;;;;0.10;0.10;;;3.00;99.90;230.40;228845.00;;;;5028445;28;20215;-74
2022/01/18 02:46:44;;;;;;;0.10;0.10;;;3.00;99.90;230.40;228845.00;;;;5009779;28;20915;-74
2022/01/18 02:49:12;;;;;;;0.10;0.10;;;3.00;99.90;230.40;228845.00;;;;5028047;28;20202;-75
2022/01/18 02:51:42;;;;;;;0.10;0.10;;;3.10;99.90;230.40;228845.00;;;;5026105;28;20264;-73
2022/01/18 02:54:14;;;;;;;0.10;0.10;;;3.10;99.90;230.40;228845.00;;;;5009846;28;20639;-73
2022/01/18 02:56:47;;;;;;;0.10;0.10;;;3.10;99.90;230.40;228845.00;;;;5026899;28;20195;-73
2022/01/18 02:59:24;;;;;;;0.10;0.10;;;3.10;99.90;230.40;228845.00;;;;5028423;28;20277;-74
2022/01/18 03:04:40;;;;;;;0.10;0.10;;;3.00;99.90;230.40;228845.00;;;;5026446;28;20203;-74
2022/01/18 03:07:10;;;;;;;0.10;0.10;;;3.00;99.90;230.40;228845.00;;;;5026561;28;20554;-74
2022/01/18 03:09:39;;;;;;;0.10;0.10;;;3.00;99.90;230.40;228845.00;;;;5027837;28;20268;-73
2022/01/18 03:12:09;;;;;;;0.10;0.10;;;3.00;99.90;230.40;228845.00;;;;5027649;28;20195;-74
2022/01/18 03:14:38;;;;;;;0.10;0.10;;;3.10;99.90;230.40;228845.00;;;;5028079;28;20206;-74
2022/01/18 03:17:07;;;;;;;0.10;0.10;;;3.00;99.90;230.40;228845.00;;;;5028840;28;20195;-75
2022/01/18 03:19:36;;;;;;;0.10;0.10;;;3.10;99.90;230.40;228845.00;;;;5028454;28;20289;-75
2022/01/18 03:22:06;;;;;;;0.10;0.10;;;3.10;99.90;230.40;228845.00;;;;5022765;28;20191;-74
2022/01/18 03:24:46;;;;;;;0.10;0.10;;;3.00;99.90;230.40;228845.00;;;;5024728;28;20199;-75
2022/01/18 03:30:09;;;;;;;0.10;0.10;;;3.00;99.90;230.40;228845.00;;;;5025988;28;20202;-74
2022/01/18 03:32:38;;;;;;;0.10;0.10;;;2.90;99.90;230.40;228845.00;;;;5027543;28;20728;-73
2022/01/18 03:35:11;;;;;;;0.10;0.10;;;2.90;99.90;230.40;228845.00;;;;5027314;28;20199;-72
2022/01/18 03:37:42;;;;;;;0.10;0.10;;;3.00;99.90;230.40;228845.00;;;;5026944;28;20199;-74
2022/01/18 03:40:12;;;;;;;0.10;0.10;;;3.10;99.90;230.40;228845.00;;;;5030543;28;20245;-74
2022/01/18 03:42:43;;;;;;;0.10;0.10;;;3.00;99.90;230.40;228845.00;;;;5031587;28;20222;-74
2022/01/18 03:45:14;;;;;;;0.10;0.10;;;2.90;99.90;230.40;228845.00;;;;5010715;28;20191;-74
2022/01/18 03:47:45;;;;;;;0.10;0.10;;;2.90;99.90;230.40;228845.00;;;;5034970;28;20203;-74
2022/01/18 03:50:15;;;;;;;0.10;0.10;;;2.90;99.90;230.40;228845.00;;;;5030346;28;20217;-73
2022/01/18 03:52:46;;;;;;;0.10;0.10;;;2.90;99.90;230.40;228845.00;;;;5013492;28;20664;-73
2022/01/18 03:55:20;;;;;;;0.10;0.10;;;2.80;99.90;230.40;228845.00;;;;5033177;28;20210;-73
2022/01/18 03:57:49;;;;;;;0.10;0.10;;;2.80;99.90;230.40;228845.00;;;;5032267;28;20195;-74
2022/01/18 04:00:20;;;;;;;0.10;0.10;;;2.70;99.90;230.40;228845.00;;;;5031548;28;20199;-74
2022/01/18 04:02:50;;;;;;;0.10;0.10;;;2.80;99.90;230.40;228845.00;;;;5030179;28;20211;-73
2022/01/18 04:05:18;;;;;;;0.10;0.10;;;2.70;99.90;230.40;228845.00;;;;5030406;28;20206;-74
2022/01/18 04:07:47;;;;;;;0.17;0.17;;;2.70;99.90;230.40;228845.00;;;;5030184;28;20256;-74
2022/01/18 04:10:16;;;;;;;0.10;0.10;;;2.70;99.90;230.40;228845.00;;;;5031365;28;20203;-73
2022/01/18 04:12:45;;;;;;;0.10;0.10;;;2.70;99.90;230.40;228845.00;;;;5031459;28;20321;-73
2022/01/18 04:15:15;;;;;;;0.10;0.10;;;2.70;99.90;230.40;228845.00;;;;5029820;28;20195;-73
2022/01/18 04:18:07;;;;;;;0.10;0.10;;;2.70;99.90;230.40;228845.00;;;;5029181;28;20606;-73
2022/01/18 04:29:03;;;;;;;0.10;0.10;;;2.80;99.90;230.40;228845.00;;;;5030784;28;20605;-74
2022/01/18 04:31:31;;;;;;;0.10;0.10;;;2.80;99.90;230.40;228845.00;;;;5011948;28;20200;-73
2022/01/18 04:33:59;;;;;;;0.10;0.10;;;2.90;99.90;230.40;228845.00;;;;5031258;28;20682;-74
2022/01/18 04:36:29;;;;;;;0.10;0.10;;;2.90;99.90;230.40;228845.00;;;;5010158;28;20215;-72
2022/01/18 04:38:58;;;;;;;0.10;0.10;;;3.00;99.90;230.40;228845.00;;;;5030381;28;20215;-74
2022/01/18 04:41:30;;;;;;;0.10;0.10;;;2.90;99.90;230.40;228845.00;;;;5030411;28;20199;-74
2022/01/18 04:48:23;;;;;;;0.10;0.10;;;2.90;99.90;230.40;228845.00;;;;5028730;28;20788;-73
2022/01/18 04:49:48;;;;;;;0.10;0.10;;;3.00;99.90;230.40;228845.00;;;;5029313;28;20292;-78
2022/01/18 04:52:17;;;;;;;0.10;0.10;;;2.90;99.90;230.40;228845.00;;;;5029024;28;20202;-77
2022/01/18 04:54:47;;;;;;;0.10;0.10;;;2.90;99.90;230.40;228845.00;;;;5009794;28;20539;-74
2022/01/18 05:00:02;;;;;;;0.10;0.10;;;2.80;99.90;230.40;228845.00;;;;5023625;28;20219;-75
2022/01/18 05:02:30;;;;;;;0.10;0.10;;;2.90;99.90;230.40;228845.00;;;;5030165;28;20238;-73
2022/01/18 05:04:58;;;;;;;0.10;0.10;;;2.90;99.90;230.40;228845.00;;;;5029550;28;20205;-73
2022/01/18 05:07:26;;;;;;;0.10;0.10;;;2.90;99.90;230.40;228845.00;;;;5011348;28;20567;-75
2022/01/18 05:09:54;;;;;;;0.10;0.10;;;2.80;99.90;230.40;228845.00;;;;5029262;28;20402;-75
2022/01/18 05:12:36;;;;;;;0.10;0.10;;;2.80;99.90;230.40;228845.00;;;;5026913;28;20253;-74
2022/01/18 05:15:21;;;;;;;0.10;0.10;;;2.80;99.90;230.40;228845.00;;;;5026617;28;20218;-74
2022/01/18 05:18:11;;;;;;;0.10;0.10;;;2.80;99.90;230.40;228845.00;;;;5030137;28;20206;-75
2022/01/18 05:20:56;;;;;;;0.10;0.10;;;2.90;99.90;230.40;228845.00;;;;5029466;28;20219;-73
2022/01/18 05:23:27;;;;;;;0.10;0.10;;;3.00;99.90;230.40;228845.00;;;;5029362;28;20214;-74
2022/01/18 05:25:56;;;;;;;0.10;0.10;;;3.10;99.90;230.40;228845.00;;;;5027002;28;20219;-75
2022/01/18 05:28:25;;;;;;;0.10;0.10;;;3.20;99.90;230.40;228845.00;;;;5029413;28;20195;-76
2022/01/18 05:30:53;;;;;;;0.10;0.10;;;3.30;99.90;230.40;228845.00;;;;5028398;28;20641;-76
2022/01/18 05:33:22;;;;;;;0.10;0.10;;;3.30;99.90;230.40;228845.00;;;;5027951;28;20289;-76
2022/01/18 05:35:54;;;;;;;0.10;0.10;;;3.40;99.90;230.40;228845.00;;;;5021309;28;20196;-73
2022/01/18 05:38:22;;;;;;;0.10;0.10;;;3.30;99.90;230.40;228845.00;;;;5028109;28;20225;-74
2022/01/18 05:40:50;;;;;;;0.10;0.10;;;3.30;99.90;230.40;228845.00;;;;5028125;28;20356;-74
2022/01/18 05:43:19;;;;;;;0.10;0.10;;;3.20;99.90;230.40;228845.00;;;;5025567;28;20257;-75
2022/01/18 05:45:48;;;;;;;0.10;0.10;;;3.30;99.90;230.40;228845.00;;;;5027170;28;20183;-75
2022/01/18 05:48:16;;;;;;;0.10;0.10;;;3.30;99.90;230.40;228845.00;;;;5027830;28;20223;-74
2022/01/18 05:50:44;;;;;;;0.10;0.10;;;3.20;99.90;230.40;228845.00;;;;5030041;28;20199;-75
2022/01/18 05:53:12;;;;;;;0.10;0.10;;;3.20;99.90;230.40;228845.00;;;;5025812;28;20241;-75
2022/01/18 05:55:40;;;;;;;0.10;0.10;;;3.30;99.90;230.40;228845.00;;;;5028199;28;20202;-74
2022/01/18 05:58:08;;;;;;;0.10;0.10;;;3.30;99.90;230.40;228845.00;;;;5029626;28;20206;-74
2022/01/18 06:00:38;;;;;;;0.10;0.10;;;3.40;99.90;230.40;228845.00;;;;5029881;28;20237;-76
2022/01/18 06:03:14;;;;;;;0.10;0.10;;;3.20;99.90;230.40;228845.00;;;;5031232;28;20274;-74
2022/01/18 06:08:28;;;;;;;0.10;0.10;;;3.40;99.90;230.40;228845.00;;;;5032086;28;20241;-74
2022/01/18 06:10:56;;;;;;;0.10;0.10;;;3.40;99.90;230.40;228845.00;;;;5024869;28;20199;-74
2022/01/18 06:13:24;;;;;;;0.10;0.10;;;3.40;99.90;230.40;228845.00;;;;5027165;28;20820;-75
2022/01/18 06:15:52;;;;;;;0.10;0.10;;;3.50;99.90;230.40;228845.00;;;;5007372;28;20269;-73
2022/01/18 06:18:22;;;;;;;0.10;0.10;;;3.50;99.90;230.40;228845.00;;;;5027768;28;20210;-74
2022/01/18 06:20:50;;;;;;;0.10;0.10;;;3.50;99.90;230.40;228845.00;;;;5027697;28;20272;-78
2022/01/18 06:23:18;;;;;;;0.10;0.10;;;3.50;99.90;230.40;228845.00;;;;5024991;28;20302;-77
2022/01/18 06:25:46;;;;;;;0.10;0.10;;;3.50;99.90;230.40;228845.00;;;;5025094;28;20187;-74
2022/01/18 06:28:15;;;;;;;0.10;0.10;;;3.50;99.90;230.40;228845.00;;;;5023133;28;20197;-74
2022/01/18 06:30:43;;;;;;;0.10;0.10;;;3.40;99.90;230.40;228845.00;;;;5029138;28;20213;-74
2022/01/18 06:33:11;;;;;;;0.10;0.10;;;3.30;99.90;230.40;228845.00;;;;5009677;28;20246;-74
2022/01/18 06:35:41;;;;;;;0.10;0.10;;;3.30;99.90;230.40;228845.00;;;;5027325;28;20732;-73
2022/01/18 06:38:10;;;;;;;0.10;0.10;;;3.20;99.90;230.40;228845.00;;;;5029004;28;20191;-72
2022/01/18 06:40:38;;;;;;;0.10;0.10;;;3.10;99.90;230.40;228845.00;;;;5027011;28;20226;-73
2022/01/18 06:43:06;;;;;;;0.10;0.10;;;3.10;99.90;230.40;228845.00;;;;5027223;28;20218;-74
2022/01/18 06:45:36;;;;;;;0.10;0.10;;;3.10;99.90;230.40;228845.00;;;;5009628;28;20199;-72
2022/01/18 06:48:05;;;;;;;0.10;0.10;;;3.10;99.90;230.40;228845.00;;;;5027274;28;20195;-76
2022/01/18 06:50:33;;;;;;;0.10;0.10;;;3.00;99.90;230.40;228845.00;;;;5028611;28;20195;-76
2022/01/18 06:53:03;;;;;;;0.10;0.10;;;2.90;99.90;230.40;228845.00;;;;5008230;28;20235;-75
2022/01/18 06:55:33;;;;;;;0.10;0.10;;;2.90;99.90;230.40;228845.00;;;;5027054;28;20452;-76
2022/01/18 06:58:01;;;;;;;0.10;0.10;;;2.80;99.90;230.40;228845.00;;;;5024035;28;20198;-76
2022/01/18 07:00:29;;;;;;;0.10;0.10;;;2.80;99.90;230.40;228845.00;;;;5021848;28;20224;-76
2022/01/18 07:02:57;;;;;;;0.10;0.10;;;2.80;99.90;230.40;228845.00;;;;5027290;28;20753;-73
2022/01/18 07:05:27;;;;;;;0.10;0.10;;;2.90;99.90;230.40;228845.00;;;;5026269;28;20199;-74
2022/01/18 07:07:55;;;;;;;0.10;0.10;;;2.90;99.90;230.40;228845.00;;;;5027021;28;20609;-75
2022/01/18 07:10:25;;;;;;;0.10;0.10;;;3.00;99.90;230.40;228845.00;;;;5025199;28;20203;-74
2022/01/18 07:12:56;;;;;;;0.10;0.10;;;3.00;99.90;230.40;228845.00;;;;5024125;28;20596;-73
2022/01/18 07:15:24;;;;;;;0.10;0.10;;;3.10;99.90;230.40;228845.00;;;;5028789;28;20191;-73
2022/01/18 07:17:52;;;;;;;0.10;0.10;;;3.00;99.90;230.40;228845.00;;;;5009691;28;20209;-74
2022/01/18 07:20:20;;;;;;;0.10;0.10;;;3.00;99.90;230.40;228845.00;;;;5025643;28;20215;-76
2022/01/18 07:22:48;;;;;;;0.10;0.10;;;2.90;99.90;230.40;228845.00;;;;5005501;28;20254;-76
2022/01/18 07:25:18;;;;;;;0.10;0.10;;;2.80;99.90;230.40;228845.00;;;;5020337;28;20206;-76
2022/01/18 07:27:47;;;;;;;0.10;0.10;;;2.70;99.90;24.30;104598.00;;;;5024433;28;20199;-76
2022/01/18 07:30:15;;;;;;;0.10;0.10;;;2.70;99.90;24.30;104527.00;;;;5022493;28;20671;-76
2022/01/18 07:32:43;;;;;;;0.10;0.10;;;2.70;99.90;24.30;104231.00;;;;5030240;28;20223;-76
2022/01/18 07:35:11;;;;;;;0.15;0.15;;;2.80;99.90;24.30;104739.00;;;;5029014;28;20203;-76
2022/01/18 07:37:40;;;;;;;0.10;0.10;;;2.80;99.90;24.40;104902.00;;;;5029099;28;20191;-74
2022/01/18 07:40:09;;;;;;;0.10;0.10;;;2.80;99.90;24.30;104893.00;;;;5027597;28;20616;-76
2022/01/18 07:42:37;;;;;;;0.10;0.10;;;2.80;99.90;24.30;104811.00;;;;5028822;28;20230;-77
2022/01/18 07:45:09;;;;;;;0.10;0.10;;;2.80;99.90;24.70;102524.00;;;;5024790;28;20192;-76
2022/01/18 07:47:37;;;;;;;0.10;0.10;;;2.80;99.90;24.50;102908.00;;;;5027625;28;20701;-76
2022/01/18 07:50:06;;;;;;;0.10;0.10;;;2.70;99.90;24.40;103275.00;;;;5029805;28;20257;-76
2022/01/18 07:52:35;;;;;;;0.10;0.10;;;2.70;99.90;24.40;103060.00;;;;5027185;28;20226;-77
2022/01/18 07:55:05;;;;;;;0.10;0.10;;;2.70;99.90;24.30;103306.00;;;;5025711;28;20705;-77
2022/01/18 07:57:33;;;;;;;0.10;0.10;;;2.70;99.90;24.50;102709.00;;;;5025413;28;20659;-76
2022/01/18 08:00:01;;;;;;;0.10;0.10;;;2.70;99.90;24.50;102929.00;;;;5028155;28;20650;-76
2022/01/18 08:02:42;;;;;;;0.10;0.10;;;2.70;99.90;24.40;103153.00;;;;5028362;28;20635;-76
2022/01/18 08:05:13;;;;;;;0.10;0.10;;;2.70;99.90;24.20;104188.00;;;;5029151;28;20606;-77
2022/01/18 08:07:42;;;;;;;0.10;0.10;;;2.70;99.90;24.20;104271.00;;;;5029189;28;20245;-77
2022/01/18 08:10:12;;;;;;;0.10;0.10;;;2.60;99.90;24.40;103085.00;;;;5029692;28;20593;-77
2022/01/18 08:12:41;;;;;;;0.10;0.10;;;2.70;99.90;24.20;104179.00;;;;5027508;28;20281;-76
2022/01/18 08:15:15;;;;;;;0.10;0.10;;;2.70;99.90;24.20;104192.00;;;;5017107;28;20237;-76
2022/01/18 08:17:55;;;;;;;0.10;0.10;;;2.60;99.90;24.20;104762.00;;;;5022398;28;20537;-77
2022/01/18 08:20:23;;;;;;;0.10;0.10;;;2.60;99.90;24.20;104896.00;;;;5027608;28;20241;-76
2022/01/18 08:22:51;;;;;;;0.10;0.10;;;2.60;99.90;24.20;104840.00;;;;5026932;28;20241;-77
2022/01/18 08:25:19;;;;;;;0.10;0.10;;;2.60;99.90;24.70;102340.00;;;;5028279;28;20191;-76
2022/01/18 08:27:47;;;;;;;0.10;0.10;;;2.60;99.90;24.90;102333.00;;;;5032554;28;20226;-76
2022/01/18 08:30:18;;;;;;;0.10;0.10;;;2.70;99.90;230.40;168930.00;;;;5030037;28;20206;-76
2022/01/18 08:32:48;;;;;;;0.10;0.10;;;2.70;99.90;230.40;228845.00;;;;5026354;28;20596;-75
2022/01/18 08:35:18;;;;;;;0.10;0.10;;;2.80;99.90;230.40;228845.00;;;;5028111;28;20226;-75
2022/01/18 08:37:47;;;;;;;0.10;0.10;;;2.80;99.90;230.40;228845.00;;;;5030959;28;20282;-76
2022/01/18 08:40:15;;;;;;;0.10;0.10;;;2.80;99.90;230.40;228845.00;;;;5013114;28;20207;-76
2022/01/18 08:42:43;;;;;;;0.10;0.10;;;2.90;99.90;230.40;228845.00;;;;5031942;28;20320;-76
2022/01/18 08:45:11;;;;;;;0.10;0.10;;;2.90;99.90;230.40;228845.00;;;;5029026;28;20190;-76
2022/01/18 08:47:45;;;;;;;0.10;0.10;;;2.90;99.90;230.40;228845.00;;;;5029631;28;20310;-76
2022/01/18 08:50:13;;;;;;;0.10;0.10;;;2.80;99.90;230.40;228845.00;;;;5029924;28;20249;-76
2022/01/18 08:52:42;;;;;;;0.10;0.10;;;2.80;99.90;230.40;228845.00;;;;5030809;28;20533;-76
2022/01/18 08:55:11;;;;;;;0.10;0.10;;;2.90;99.90;230.40;228845.00;;;;5031288;28;20191;-76
2022/01/18 08:57:39;;;;;;;0.10;0.10;;;2.90;99.90;230.40;228845.00;;;;5027049;28;20608;-75
2022/01/18 09:00:10;;;;;;;0.10;0.10;;;2.90;99.90;230.40;228845.00;;;;5030375;28;20237;-75
2022/01/18 09:02:38;;;;;;;0.10;0.10;;;2.90;99.90;230.40;228845.00;;;;5029744;28;20219;-75
2022/01/18 09:05:07;;;;;;;0.10;0.10;;;2.90;99.90;230.40;228845.00;;;;5032176;28;20203;-76
2022/01/18 09:07:37;;;;;;;0.10;0.10;;;2.90;99.90;230.40;228845.00;;;;5032528;28;20523;-76
2022/01/18 09:10:10;;;;;;;0.10;0.10;;;2.90;99.90;230.40;228845.00;;;;5029040;28;20191;-76
2022/01/18 09:12:39;;;;;;;0.10;0.10;;;2.90;99.90;230.40;228845.00;;;;5013195;28;20592;-76
2022/01/18 09:15:10;;;;;;;0.10;0.10;;;2.90;99.90;230.40;228845.00;;;;5025665;28;20204;-76
2022/01/18 09:17:42;;;;;;;0.10;0.10;;;2.90;99.90;230.40;228845.00;;;;5029141;28;20217;-76
2022/01/18 09:20:14;;;;;;;0.10;0.10;;;2.90;99.90;230.40;228845.00;;;;5027540;28;20551;-76
2022/01/18 09:22:46;;;;;;;0.10;0.10;;;2.90;99.90;230.40;228845.00;;;;5027528;28;20694;-76
2022/01/18 09:25:20;;;;;;;0.10;0.10;;;2.90;99.90;230.40;228845.00;;;;5028271;28;20195;-76
2022/01/18 09:27:49;;;;;;;0.10;0.10;;;2.80;99.90;230.40;228845.00;;;;5030673;28;20230;-75
2022/01/18 09:30:18;;;;;;;0.10;0.10;;;2.80;99.90;230.40;228845.00;;;;5029717;28;20195;-76
2022/01/18 09:32:48;;;;;;;0.10;0.10;;;2.80;99.90;230.40;228845.00;;;;5028646;28;20222;-74
2022/01/18 09:35:18;;;;;;;0.10;0.10;;;2.90;99.90;230.40;228845.00;;;;5028722;28;20589;-76
2022/01/18 09:37:47;;;;;;;0.10;0.10;;;3.00;99.90;230.40;228845.00;;;;5030084;28;20198;-75
2022/01/18 09:40:20;;;;;;;0.10;0.10;;;3.00;99.90;230.40;228845.00;;;;5030918;28;20207;-76
2022/01/18 09:42:52;;;;;;;0.10;0.10;;;3.00;99.90;230.40;228845.00;;;;5029466;28;20216;-77
2022/01/18 09:45:23;;;;;;;0.10;0.10;;;3.10;99.90;230.40;228845.00;;;;5030042;28;20238;-76
2022/01/18 09:47:55;;;;;;;0.10;0.10;;;3.20;99.90;230.40;228845.00;;;;5029812;28;20211;-76
2022/01/18 09:50:27;;;;;;;0.10;0.10;;;3.20;99.90;230.40;228845.00;;;;5028683;28;20849;-76
2022/01/18 09:52:58;;;;;;;0.10;0.10;;;3.30;99.90;230.40;228845.00;;;;5029854;28;20223;-76
2022/01/18 09:55:31;;;;;;;0.10;0.10;;;3.50;99.90;230.40;228845.00;;;;5030237;28;20203;-76
2022/01/18 09:58:03;;;;;;;0.10;0.10;;;3.40;99.90;230.40;228845.00;;;;5031533;28;20199;-76
2022/01/18 10:00:33;;;;;;;0.10;0.10;;;3.40;99.90;230.40;228845.00;;;;5029335;28;20215;-76
2022/01/18 10:03:02;;;;;;;0.10;0.10;;;3.40;99.90;230.40;228845.00;;;;5029564;28;20297;-76
2022/01/18 10:05:33;;;;;;;0.10;0.10;;;3.50;99.90;230.40;228845.00;;;;5030152;28;20192;-75
2022/01/18 10:08:07;;;;;;;0.10;0.10;;;3.50;99.90;230.40;228845.00;;;;5028174;28;20350;-76
2022/01/18 10:10:44;;;;;;;0.10;0.10;;;3.60;99.90;230.40;228845.00;;;;5033276;28;21025;-76
2022/01/18 10:13:20;;;;;;;0.10;0.10;;;3.70;99.90;230.40;228845.00;;;;5033980;28;20632;-74
2022/01/18 10:16:01;;;;;;;0.10;0.10;;;3.80;99.90;230.40;228845.00;;;;5032116;28;20203;-75
2022/01/18 10:18:43;;;;;;;0.10;0.10;;;3.90;99.90;230.40;228845.00;;;;5032342;28;20198;-74
2022/01/18 10:21:15;;;;;;;0.10;0.10;;;4.00;99.90;230.40;228845.00;;;;5027368;28;20202;-74
2022/01/18 10:23:49;;;;;;;0.10;0.10;;;4.00;99.90;230.40;228845.00;;;;5024106;28;20220;-77
2022/01/18 10:26:26;;;;;;;0.10;0.10;;;4.10;99.90;230.40;228845.00;;;;5025862;28;20675;-76
2022/01/18 10:29:06;;;;;;;0.10;0.10;;;4.20;99.90;230.40;228845.00;;;;5029917;28;20256;-76
2022/01/18 10:31:41;;;;;;;0.10;0.10;;;4.30;99.90;230.40;228845.00;;;;5027856;28;20244;-76
2022/01/18 10:34:39;;;;;;;0.10;0.10;;;4.30;99.90;230.40;228845.00;;;;5024973;28;20672;-76
2022/01/18 10:37:12;;;;;;;0.10;0.10;;;4.40;99.90;230.40;228845.00;;;;5022090;28;20202;-77
2022/01/18 10:39:43;;;;;;;0.10;0.10;;;4.40;99.90;230.40;228845.00;;;;5025535;28;20208;-76
2022/01/18 10:42:24;;;;;;;0.10;0.10;;;4.50;99.90;230.40;228845.00;;;;5028449;28;20207;-76
2022/01/18 10:45:02;;;;;;;0.10;0.10;;;4.50;99.90;230.40;228845.00;;;;5027034;28;20208;-76
2022/01/18 10:47:31;;;;;;;0.10;0.10;;;4.60;99.90;230.40;228845.00;;;;5024756;28;20207;-75
2022/01/18 10:50:09;;;;;;;0.10;0.10;;;4.60;99.90;230.40;228845.00;;;;5026193;28;20188;-76
2022/01/18 10:52:37;;;;;;;0.10;0.10;;;4.60;99.90;230.40;228845.00;;;;5028136;28;20756;-76
2022/01/18 10:55:09;;;;;;;0.10;0.10;;;4.60;99.90;230.40;228845.00;;;;5010781;28;20200;-76
2022/01/18 10:57:45;;;;;;;0.15;0.15;;;4.60;99.90;230.40;228845.00;;;;5028677;28;20194;-76
2022/01/18 11:00:18;;;;;;;0.10;0.10;;;4.60;99.90;230.40;228845.00;;;;5024954;28;20659;-76
2022/01/18 11:02:50;;;;;;;0.10;0.10;;;4.60;99.90;230.40;228845.00;;;;5025252;28;20230;-76
2022/01/18 11:05:21;;;;;;;0.10;0.10;;;4.60;99.90;25.50;103756.00;;;;5027512;28;20191;-77
2022/01/18 11:07:51;;;;;;;0.10;0.10;;;4.60;99.90;25.40;104421.00;;;;5027593;28;20199;-77
2022/01/18 11:10:22;;;;;;;0.10;0.10;;;4.60;99.90;25.50;104750.00;;;;5028375;28;20198;-76
2022/01/18 11:12:58;;;;;;;0.10;0.10;;;4.60;99.90;25.60;104954.00;;;;5027545;28;20215;-77
2022/01/18 11:15:27;;;;;;;0.10;0.10;;;4.60;99.90;25.50;104754.00;;;;5028273;28;20732;-76
2022/01/18 11:17:59;;;;;;;0.10;0.10;;;4.60;99.90;25.70;102907.00;;;;5028349;28;20681;-75
2022/01/18 11:20:30;;;;;;;0.10;0.10;;;4.60;99.90;25.50;103714.00;;;;5023588;28;20203;-76
2022/01/18 11:22:59;;;;;;;0.10;0.10;;;4.60;99.90;25.60;103572.00;;;;5026065;28;20690;-76
2022/01/18 11:25:29;;;;;;;0.10;0.10;;;4.70;99.90;25.60;103231.00;;;;5028825;28;20187;-76
2022/01/18 11:27:59;;;;;;;0.10;0.10;;;4.60;99.90;25.50;103584.00;;;;5027990;28;20574;-77
2022/01/18 11:30:32;;;;;;;0.10;0.10;;;4.70;99.90;25.50;104226.00;;;;5027501;28;20187;-77
2022/01/18 11:33:03;;;;;;;0.10;0.10;;;4.60;99.90;25.60;103218.00;;;;5026897;28;20211;-75
2022/01/18 11:35:44;;;;;;;0.10;0.10;;;4.60;99.90;25.70;103071.00;;;;5027123;28;20212;-74
2022/01/18 11:38:20;;;;;;;0.10;0.10;;;4.60;99.90;25.50;103731.00;;;;5028255;28;20614;-75
2022/01/18 11:40:51;;;;;;;0.10;0.10;;;4.60;99.90;25.80;102883.00;;;;5028580;28;20226;-74
2022/01/18 11:43:37;;;;;;;0.10;0.10;;;4.70;99.90;26.00;102648.00;;;;5027798;28;20225;-74
2022/01/18 11:46:24;;;;;;;0.10;0.10;;;4.80;99.90;26.00;102639.00;;;;5008859;28;20195;-75
2022/01/18 11:49:02;;;;;;;0.10;0.10;;;4.90;99.90;25.80;103329.00;;;;5025766;28;20696;-73
2022/01/18 11:51:40;;;;;;;0.10;0.10;;;4.90;99.90;25.60;104276.00;;;;5029887;28;20225;-74
2022/01/18 11:54:30;;;;;;;0.10;0.10;;;4.80;99.90;25.60;104523.00;;;;5035643;28;20234;-74
2022/01/18 11:57:00;;;;;;;0.10;0.10;;;4.70;99.90;27.00;100764.00;;;;5032036;28;20211;-74